createdAt,value
2022-08-22T00:00:23.407Z,8.23
2022-08-22T00:03:01.343Z,7.90
2022-08-22T00:03:18.638Z,8.43
2022-08-22T00:06:01.996Z,8.00
2022-08-22T00:08:39.121Z,7.87
2022-08-22T00:11:15.952Z,7.70
2022-08-22T00:14:01.177Z,8.27
2022-08-22T00:16:39.021Z,8.27
2022-08-22T00:19:18.160Z,8.00
2022-08-22T00:21:52.780Z,8.27
2022-08-22T00:24:29.964Z,8.00
2022-08-22T00:27:04.415Z,7.93
2022-08-22T00:29:38.878Z,7.87
2022-08-22T00:32:15.129Z,8.10
2022-08-22T00:34:51.801Z,7.77
2022-08-22T00:37:27.264Z,7.70
2022-08-22T00:40:03.816Z,8.10
2022-08-22T00:43:08.891Z,8.33
2022-08-22T00:45:59.864Z,8.43
2022-08-22T00:49:03.702Z,8.90
2022-08-22T00:52:16.318Z,8.50
2022-08-22T00:55:09.200Z,7.70
2022-08-22T00:57:59.391Z,8.30
2022-08-22T01:00:36.618Z,8.00
2022-08-22T01:03:49.571Z,7.50
2022-08-22T01:06:26.651Z,8.10
2022-08-22T01:09:04.205Z,8.83
2022-08-22T01:11:54.211Z,7.77
2022-08-22T01:14:43.811Z,8.37
2022-08-22T01:17:37.942Z,7.73
2022-08-22T01:20:43.456Z,8.13
2022-08-22T01:23:59.316Z,7.83
2022-08-22T01:27:00.649Z,8.93
2022-08-22T01:30:03.267Z,8.50
2022-08-22T01:33:09.281Z,8.20
2022-08-22T01:36:06.090Z,8.00
2022-08-22T01:39:10.190Z,8.40
2022-08-22T01:42:10.900Z,8.00
2022-08-22T01:45:03.683Z,8.20
2022-08-22T01:47:39.541Z,8.10
2022-08-22T01:50:18.271Z,8.57
2022-08-22T01:52:50.923Z,8.60
2022-08-22T01:55:27.428Z,8.43
2022-08-22T01:57:59.590Z,8.00
2022-08-22T02:00:37.270Z,8.97
2022-08-22T02:03:18.725Z,8.83
2022-08-22T02:05:53.679Z,7.90
2022-08-22T02:08:38.230Z,8.30
2022-08-22T02:11:08.870Z,8.10
2022-08-22T02:13:55.634Z,8.63
2022-08-22T02:16:33.700Z,8.53
2022-08-22T02:19:22.354Z,9.10
2022-08-22T02:21:57.792Z,8.40
2022-08-22T02:24:39.887Z,8.97
2022-08-22T02:27:14.235Z,8.47
2022-08-22T02:29:50.448Z,9.27
2022-08-22T02:32:26.450Z,9.10
2022-08-22T02:35:03.453Z,7.90
2022-08-22T02:37:37.990Z,7.90
2022-08-22T02:40:15.171Z,8.10
2022-08-22T02:42:48.809Z,8.10
2022-08-22T02:45:35.783Z,8.07
2022-08-22T02:48:18.395Z,8.20
2022-08-22T02:50:54.923Z,8.40
2022-08-22T02:53:29.840Z,8.90
2022-08-22T02:56:04.352Z,8.60
2022-08-22T02:58:42.080Z,8.47
2022-08-22T03:01:21.985Z,9.47
2022-08-22T03:03:51.800Z,8.70
2022-08-22T03:06:37.689Z,9.00
2022-08-22T03:09:23.245Z,9.10
2022-08-22T03:12:05.751Z,9.40
2022-08-22T03:14:43.441Z,9.27
2022-08-22T03:17:18.490Z,9.17
2022-08-22T03:19:54.842Z,9.30
2022-08-22T03:22:31.170Z,8.70
2022-08-22T03:25:08.542Z,9.10
2022-08-22T03:27:44.656Z,8.60
2022-08-22T03:30:21.991Z,9.13
2022-08-22T03:32:56.419Z,8.67
2022-08-22T03:35:36.066Z,9.00
2022-08-22T03:38:25.046Z,8.83
2022-08-22T03:41:26.577Z,8.17
2022-08-22T03:44:12.009Z,8.40
2022-08-22T03:46:56.750Z,8.50
2022-08-22T03:50:00.602Z,8.93
2022-08-22T03:53:23.013Z,8.70
2022-08-22T03:56:27.257Z,8.67
2022-08-22T03:59:29.019Z,8.53
2022-08-22T04:02:43.518Z,8.17
2022-08-22T04:09:03.180Z,7.93
2022-08-22T04:12:08.360Z,8.17
2022-08-22T04:15:11.375Z,8.20
2022-08-22T04:27:25.202Z,7.60
2022-08-22T04:30:02.260Z,7.77
2022-08-22T04:32:37.393Z,7.07
2022-08-22T04:35:10.683Z,7.63
2022-08-22T04:37:48.204Z,7.10
2022-08-22T04:40:23.111Z,7.53
2022-08-22T04:42:58.632Z,7.07
2022-08-22T04:45:33.691Z,6.53
2022-08-22T04:48:09.260Z,6.10
2022-08-22T04:50:43.532Z,5.97
2022-08-22T04:53:46.681Z,5.60
2022-08-22T04:56:26.391Z,5.37
2022-08-22T04:58:59.756Z,6.00
2022-08-22T05:01:40.577Z,5.63
2022-08-22T05:04:11.692Z,6.37
2022-08-22T05:06:46.109Z,5.33
2022-08-22T05:09:18.664Z,5.30
2022-08-22T05:11:50.263Z,4.70
2022-08-22T05:14:26.062Z,4.90
2022-08-22T05:16:57.683Z,5.10
2022-08-22T05:19:32.271Z,5.10
2022-08-22T05:22:02.337Z,4.80
2022-08-22T05:24:36.551Z,5.13
2022-08-22T05:27:12.392Z,5.00
2022-08-22T05:29:47.494Z,4.40
2022-08-22T05:32:23.196Z,4.57
2022-08-22T05:34:55.230Z,4.70
2022-08-22T05:37:29.762Z,4.50
2022-08-22T05:40:00.924Z,4.90
2022-08-22T05:42:33.202Z,5.00
2022-08-22T05:45:06.850Z,4.90
2022-08-22T05:47:45.961Z,4.80
2022-08-22T05:50:18.408Z,4.70
2022-08-22T05:53:02.899Z,4.10
2022-08-22T05:55:38.731Z,4.40
2022-08-22T05:58:23.612Z,4.23
2022-08-22T06:00:58.510Z,3.90
2022-08-22T06:03:32.340Z,4.30
2022-08-22T06:06:09.463Z,3.70
2022-08-22T06:08:44.110Z,4.10
2022-08-22T06:11:18.300Z,4.10
2022-08-22T06:13:53.021Z,4.40
2022-08-22T06:16:33.019Z,4.67
2022-08-22T06:19:03.489Z,4.53
2022-08-22T06:21:49.960Z,5.10
2022-08-22T06:24:23.910Z,4.50
2022-08-22T06:26:54.074Z,4.90
2022-08-22T06:29:35.184Z,5.30
2022-08-22T06:32:12.720Z,5.17
2022-08-22T06:34:45.095Z,4.83
2022-08-22T06:37:19.641Z,5.40
2022-08-22T06:39:54.091Z,5.50
2022-08-22T06:42:26.320Z,5.47
2022-08-22T06:44:59.972Z,5.77
2022-08-22T06:47:38.051Z,6.13
2022-08-22T06:50:13.701Z,6.90
2022-08-22T06:52:53.319Z,6.47
2022-08-22T06:55:23.688Z,7.30
2022-08-22T06:57:57.618Z,7.00
2022-08-22T07:00:27.699Z,6.90
2022-08-22T07:03:01.784Z,6.80
2022-08-22T07:05:37.841Z,6.67
2022-08-22T07:08:08.730Z,6.70
2022-08-22T07:10:37.945Z,6.60
2022-08-22T07:13:08.340Z,7.00
2022-08-22T07:15:41.069Z,7.83
2022-08-22T07:18:19.250Z,7.90
2022-08-22T07:20:55.098Z,8.03
2022-08-22T07:23:32.686Z,7.60
2022-08-22T07:26:15.995Z,7.87
2022-08-22T07:28:50.888Z,7.30
2022-08-22T07:31:37.147Z,7.73
2022-08-22T07:34:27.301Z,7.63
2022-08-22T07:37:01.924Z,7.70
2022-08-22T07:39:37.969Z,7.73
2022-08-22T07:42:13.851Z,7.90
2022-08-22T07:45:06.119Z,8.07
2022-08-22T07:47:58.007Z,8.10
2022-08-22T07:50:31.219Z,7.27
2022-08-22T07:53:06.290Z,7.50
2022-08-22T07:55:41.063Z,7.77
2022-08-22T07:58:19.421Z,7.10
2022-08-22T08:00:50.358Z,6.83
2022-08-22T08:03:22.194Z,6.70
2022-08-22T08:05:52.310Z,7.20
2022-08-22T08:08:26.063Z,7.60
2022-08-22T08:10:58.079Z,7.23
2022-08-22T08:13:31.011Z,7.30
2022-08-22T08:16:01.026Z,6.93
2022-08-22T08:18:31.067Z,7.20
2022-08-22T08:21:04.857Z,7.10
2022-08-22T08:23:40.930Z,7.33
2022-08-22T08:26:12.748Z,6.90
2022-08-22T08:28:44.365Z,7.50
2022-08-22T08:31:23.317Z,7.30
2022-08-22T08:33:59.964Z,6.83
2022-08-22T08:36:40.431Z,7.33
2022-08-22T08:39:17.877Z,6.90
2022-08-22T08:42:10.990Z,7.47
2022-08-22T08:45:02.848Z,7.00
2022-08-22T08:47:45.910Z,7.60
2022-08-22T08:50:39.250Z,7.93
2022-08-22T08:53:51.003Z,6.90
2022-08-22T08:56:31.002Z,7.23
2022-08-22T08:59:10.100Z,7.30
2022-08-22T09:02:02.696Z,7.87
2022-08-22T09:05:07.156Z,7.80
2022-08-22T09:07:53.933Z,7.17
2022-08-22T09:10:41.224Z,7.87
2022-08-22T09:13:34.463Z,7.53
2022-08-22T09:16:26.349Z,7.20
2022-08-22T09:19:30.610Z,6.70
2022-08-22T09:22:50.771Z,7.63
2022-08-22T09:25:38.347Z,7.43
2022-08-22T09:28:19.608Z,7.17
2022-08-22T09:31:03.160Z,7.75
2022-08-22T09:33:54.980Z,7.40
2022-08-22T09:36:28.373Z,6.63
2022-08-22T09:38:59.935Z,6.83
2022-08-22T09:41:38.841Z,6.35
2022-08-22T09:44:20.943Z,6.60
2022-08-22T09:47:03.584Z,6.65
2022-08-22T09:49:46.051Z,7.50
2022-08-22T09:52:27.834Z,7.70
2022-08-22T09:55:08.548Z,7.47
2022-08-22T09:57:42.995Z,9.63
2022-08-22T10:00:36.631Z,7.55
2022-08-22T10:03:13.434Z,8.18
2022-08-22T10:05:47.001Z,8.70
2022-08-22T10:08:35.055Z,8.75
2022-08-22T10:11:28.982Z,8.15
2022-08-22T10:14:04.510Z,8.65
2022-08-22T10:17:00.686Z,9.32
2022-08-22T10:19:34.149Z,11.40
2022-08-22T10:22:33.438Z,11.25
2022-08-22T10:25:32.899Z,10.15
2022-08-22T10:28:14.915Z,10.23
2022-08-22T10:30:54.749Z,9.85
2022-08-22T10:33:29.485Z,9.90
2022-08-22T10:36:07.886Z,9.68
2022-08-22T10:38:47.725Z,9.32
2022-08-22T10:41:28.317Z,9.63
2022-08-22T10:44:04.495Z,10.38
2022-08-22T10:46:39.620Z,10.75
2022-08-22T10:49:20.698Z,10.02
2022-08-22T10:52:14.776Z,9.85
2022-08-22T10:54:49.476Z,9.48
2022-08-22T10:57:42.549Z,10.40
2022-08-22T11:00:22.849Z,9.45
2022-08-22T11:03:03.584Z,10.32
2022-08-22T11:05:43.300Z,9.40
2022-08-22T11:08:31.521Z,9.43
2022-08-22T11:11:24.977Z,9.02
2022-08-22T11:14:52.381Z,8.48
2022-08-22T11:17:40.664Z,8.82
2022-08-22T11:20:22.300Z,9.40
2022-08-22T11:23:11.808Z,8.90
2022-08-22T11:25:54.190Z,10.30
2022-08-22T11:28:52.137Z,10.38
2022-08-22T11:31:31.732Z,10.10
2022-08-22T11:34:10.503Z,10.00
2022-08-22T11:36:46.540Z,10.43
2022-08-22T11:39:25.673Z,10.18
2022-08-22T11:42:04.070Z,11.00
2022-08-22T11:44:50.023Z,10.30
2022-08-22T11:47:24.192Z,11.43
2022-08-22T11:50:01.445Z,10.60
2022-08-22T11:52:54.530Z,10.60
2022-08-22T11:55:34.693Z,10.52
2022-08-22T11:58:25.264Z,10.05
2022-08-22T12:01:03.850Z,10.77
2022-08-22T12:04:10.815Z,11.57
2022-08-22T12:06:51.673Z,10.85
2022-08-22T12:09:47.723Z,10.93
2022-08-22T12:12:33.393Z,11.33
2022-08-22T12:15:12.048Z,11.68
2022-08-22T12:18:12.733Z,11.65
2022-08-22T12:21:22.970Z,12.65
2022-08-22T12:24:23.025Z,13.52
2022-08-22T12:27:06.523Z,13.47
2022-08-22T12:40:16.098Z,12.10
2022-08-22T12:43:24.577Z,12.10
2022-08-22T12:46:13.536Z,11.73
2022-08-22T12:49:01.541Z,11.10
2022-08-22T12:51:46.831Z,11.43
2022-08-22T12:54:35.372Z,11.87
2022-08-22T12:57:24.421Z,12.27
2022-08-22T12:59:58.180Z,12.30
2022-08-22T13:02:31.630Z,12.93
2022-08-22T13:05:04.088Z,12.00
2022-08-22T13:07:36.300Z,11.87
2022-08-22T13:10:22.984Z,11.70
2022-08-22T13:12:57.840Z,12.67
2022-08-22T13:15:31.233Z,13.30
2022-08-22T13:18:25.099Z,13.90
2022-08-22T13:20:53.247Z,14.47
2022-08-22T13:23:27.275Z,14.90
2022-08-22T13:26:26.956Z,14.60
2022-08-22T13:31:59.079Z,15.13
2022-08-22T13:34:40.089Z,15.10
2022-08-22T13:37:14.289Z,14.77
2022-08-22T13:39:49.161Z,15.67
2022-08-22T13:42:29.862Z,15.50
2022-08-22T13:45:05.823Z,15.47
2022-08-22T13:47:39.497Z,14.73
2022-08-22T13:50:14.752Z,15.30
2022-08-22T13:52:52.178Z,16.17
2022-08-22T13:55:30.312Z,14.93
2022-08-22T13:58:07.755Z,15.90
2022-08-22T14:01:07.226Z,14.70
2022-08-22T14:03:41.918Z,14.50
2022-08-22T14:06:38.161Z,15.67
2022-08-22T14:09:31.305Z,16.93
2022-08-22T14:12:12.615Z,15.27
2022-08-22T14:14:45.906Z,14.50
2022-08-22T14:17:21.751Z,14.43
2022-08-22T14:19:59.566Z,14.60
2022-08-22T14:22:35.508Z,14.40
2022-08-22T14:25:09.204Z,14.17
2022-08-22T14:27:43.885Z,13.37
2022-08-22T14:30:19.041Z,13.40
2022-08-22T14:32:53.672Z,13.67
2022-08-22T14:35:35.042Z,12.60
2022-08-22T14:38:29.776Z,12.37
2022-08-22T14:41:05.194Z,12.30
2022-08-22T14:43:54.609Z,12.93
2022-08-22T14:46:27.991Z,13.60
2022-08-22T14:49:35.249Z,13.70
2022-08-22T14:52:19.538Z,13.10
2022-08-22T14:54:48.607Z,12.83
2022-08-22T14:57:20.938Z,12.67
2022-08-22T14:59:52.458Z,13.17
2022-08-22T15:02:27.853Z,13.13
2022-08-22T15:05:01.657Z,13.63
2022-08-22T15:07:34.157Z,14.77
2022-08-22T15:10:06.781Z,13.40
2022-08-22T15:12:48.336Z,13.17
2022-08-22T15:15:30.459Z,13.07
2022-08-22T15:17:58.829Z,13.13
2022-08-22T15:20:36.404Z,12.97
2022-08-22T15:23:20.665Z,13.67
2022-08-22T15:26:00.070Z,14.33
2022-08-22T15:28:49.799Z,14.27
2022-08-22T15:31:21.160Z,13.57
2022-08-22T15:33:50.808Z,13.53
2022-08-22T15:36:23.951Z,13.77
2022-08-22T15:38:54.367Z,13.17
2022-08-22T15:41:41.979Z,13.47
2022-08-22T15:44:32.348Z,11.80
2022-08-22T15:47:11.902Z,13.13
2022-08-22T15:49:56.504Z,12.10
2022-08-22T15:52:31.670Z,11.93
2022-08-22T15:55:30.518Z,11.93
2022-08-22T15:58:07.469Z,11.10
2022-08-22T16:00:43.369Z,11.30
2022-08-22T16:03:24.471Z,10.83
2022-08-22T16:05:56.064Z,10.73
2022-08-22T16:08:32.778Z,10.70
2022-08-22T16:11:33.021Z,10.10
2022-08-22T16:14:24.416Z,11.10
2022-08-22T16:16:56.615Z,10.60
2022-08-22T16:19:26.291Z,11.23
2022-08-22T16:22:12.226Z,11.30
2022-08-22T16:25:02.464Z,10.80
2022-08-22T16:27:31.358Z,11.03
2022-08-22T16:30:14.157Z,10.77
2022-08-22T16:32:54.439Z,11.00
2022-08-22T16:36:23.432Z,11.53
2022-08-22T16:38:56.137Z,12.00
2022-08-22T16:41:33.644Z,11.57
2022-08-22T16:44:22.841Z,12.20
2022-08-22T16:46:54.030Z,12.47
2022-08-22T16:49:28.799Z,12.53
2022-08-22T16:52:34.173Z,13.10
2022-08-22T16:55:04.985Z,13.23
2022-08-22T16:58:05.035Z,12.83
2022-08-22T17:00:44.750Z,13.20
2022-08-22T17:03:25.651Z,12.83
2022-08-22T17:06:03.728Z,13.70
2022-08-22T17:08:55.926Z,13.60
2022-08-22T17:11:38.976Z,12.27
2022-08-22T17:14:20.987Z,13.40
2022-08-22T17:17:02.646Z,13.17
2022-08-22T17:19:45.645Z,12.23
2022-08-22T17:22:29.073Z,14.07
2022-08-22T17:25:15.964Z,14.10
2022-08-22T17:27:47.928Z,14.77
2022-08-22T17:30:23.566Z,13.53
2022-08-22T17:33:17.074Z,13.47
2022-08-22T17:36:02.017Z,13.80
2022-08-22T17:38:48.750Z,13.13
2022-08-22T17:41:34.827Z,13.30
2022-08-22T17:44:12.276Z,12.77
2022-08-22T17:46:52.599Z,12.63
2022-08-22T17:49:29.806Z,12.70
2022-08-22T17:52:14.161Z,12.43
2022-08-22T17:54:50.070Z,12.23
2022-08-22T17:57:29.575Z,13.17
2022-08-22T18:00:03.806Z,13.47
2022-08-22T18:02:41.735Z,13.97
2022-08-22T18:05:15.551Z,13.40
2022-08-22T18:07:55.022Z,12.40
2022-08-22T18:10:38.369Z,13.03
2022-08-22T18:13:11.250Z,13.83
2022-08-22T18:15:48.255Z,12.83
2022-08-22T18:18:31.296Z,13.37
2022-08-22T18:21:04.146Z,12.87
2022-08-22T18:23:40.196Z,12.40
2022-08-22T18:26:21.779Z,12.10
2022-08-22T18:28:56.432Z,12.70
2022-08-22T18:31:39.196Z,12.10
2022-08-22T18:34:21.779Z,11.90
2022-08-22T18:36:56.999Z,11.17
2022-08-22T18:39:29.395Z,13.00
2022-08-22T18:42:04.579Z,12.77
2022-08-22T18:44:35.423Z,12.23
2022-08-22T18:47:13.560Z,11.57
2022-08-22T18:49:48.324Z,12.20
2022-08-22T18:52:21.508Z,12.10
2022-08-22T18:55:15.716Z,11.80
2022-08-22T18:58:28.708Z,11.83
2022-08-22T19:01:16.660Z,12.37
2022-08-22T19:04:08.477Z,12.20
2022-08-22T19:07:00.124Z,12.53
2022-08-22T19:10:08.997Z,11.03
2022-08-22T19:12:53.543Z,10.50
2022-08-22T19:15:35.391Z,10.57
2022-08-22T19:18:34.428Z,10.77
2022-08-22T19:21:38.614Z,10.60
2022-08-22T19:24:11.486Z,9.93
2022-08-22T19:26:43.385Z,9.70
2022-08-22T19:29:48.865Z,10.43
2022-08-22T19:32:52.583Z,9.47
2022-08-22T19:35:24.310Z,10.50
2022-08-22T19:37:55.542Z,11.00
2022-08-22T19:40:53.307Z,10.50
2022-08-22T19:43:31.950Z,10.83
2022-08-22T19:46:03.817Z,10.73
2022-08-22T19:48:44.495Z,9.83
2022-08-22T19:51:25.851Z,9.30
2022-08-22T19:54:16.984Z,9.50
2022-08-22T19:57:04.355Z,9.57
2022-08-22T19:59:50.825Z,8.90
2022-08-22T20:02:31.960Z,9.27
2022-08-22T20:05:23.122Z,10.70
2022-08-22T20:08:05.472Z,10.27
2022-08-22T20:10:59.720Z,11.93
2022-08-22T20:13:33.067Z,11.53
2022-08-22T20:16:10.291Z,11.07
2022-08-22T20:19:17.712Z,10.63
2022-08-22T20:21:59.143Z,10.30
2022-08-22T20:24:39.750Z,10.27
2022-08-22T20:27:15.773Z,9.70
2022-08-22T20:29:52.957Z,9.73
2022-08-22T20:32:23.587Z,9.23
2022-08-22T20:34:57.044Z,8.90
2022-08-22T20:37:45.437Z,7.37
2022-08-22T20:40:53.590Z,6.70
2022-08-22T20:43:28.237Z,6.87
2022-08-22T20:46:08.258Z,6.60
2022-08-22T20:48:44.886Z,7.10
2022-08-22T20:51:17.368Z,7.43
2022-08-22T20:53:53.018Z,7.17
2022-08-22T20:56:38.350Z,7.20
2022-08-22T20:59:29.597Z,6.97
2022-08-22T21:02:09.293Z,6.70
2022-08-22T21:04:43.834Z,6.80
2022-08-22T21:07:12.631Z,6.50
2022-08-22T21:09:58.850Z,6.87
2022-08-22T21:12:27.826Z,6.40
2022-08-22T21:14:56.127Z,6.63
2022-08-22T21:17:34.395Z,6.43
2022-08-22T21:20:22.138Z,6.70
2022-08-22T21:22:51.753Z,6.43
2022-08-22T21:25:20.230Z,6.20
2022-08-22T21:27:49.849Z,6.67
2022-08-22T21:30:25.260Z,6.50
2022-08-22T21:32:56.577Z,6.30
2022-08-22T21:35:31.334Z,6.50
2022-08-22T21:38:02.149Z,6.77
2022-08-22T21:40:34.279Z,6.30
2022-08-22T21:43:07.918Z,5.93
2022-08-22T21:45:43.391Z,6.40
2022-08-22T21:48:36.646Z,6.70
2022-08-22T21:51:41.960Z,6.97
2022-08-22T21:54:40.747Z,7.07
2022-08-22T21:57:19.310Z,6.60
2022-08-22T21:59:51.387Z,6.53
2022-08-22T22:02:34.188Z,6.70
2022-08-22T22:05:10.298Z,6.50
2022-08-22T22:07:41.665Z,6.43
2022-08-22T22:10:13.089Z,6.90
2022-08-22T22:12:41.917Z,7.10
2022-08-22T22:15:12.647Z,7.10
2022-08-22T22:17:41.151Z,6.83
2022-08-22T22:20:12.655Z,7.00
2022-08-22T22:22:42.396Z,7.10
2022-08-22T22:25:41.290Z,7.50
2022-08-22T22:28:07.753Z,7.30
2022-08-22T22:30:36.546Z,7.23
2022-08-22T22:33:05.148Z,7.60
2022-08-22T22:35:35.106Z,7.17
2022-08-22T22:38:03.483Z,7.20
2022-08-22T22:40:32.021Z,7.20
2022-08-22T22:43:00.411Z,7.00
2022-08-22T22:45:28.846Z,7.07
2022-08-22T22:47:57.725Z,7.17
2022-08-22T22:50:26.707Z,7.13
2022-08-22T22:52:56.367Z,6.97
2022-08-22T22:55:25.316Z,7.10
2022-08-22T22:57:58.520Z,7.70
2022-08-22T23:00:31.175Z,7.90
2022-08-22T23:03:01.217Z,7.17
2022-08-22T23:05:30.119Z,7.33
2022-08-22T23:08:00.609Z,7.90
2022-08-22T23:10:31.428Z,7.50
2022-08-22T23:13:00.556Z,7.80
2022-08-22T23:15:29.309Z,7.57
2022-08-22T23:17:58.323Z,7.77
2022-08-22T23:20:26.748Z,7.70
2022-08-22T23:22:55.019Z,7.47
2022-08-22T23:25:24.616Z,7.83
2022-08-22T23:27:53.076Z,7.83
2022-08-22T23:30:22.059Z,7.70
2022-08-22T23:32:50.397Z,7.67
2022-08-22T23:35:18.880Z,7.50
2022-08-22T23:37:47.137Z,7.70
2022-08-22T23:40:15.494Z,7.40
2022-08-22T23:42:45.337Z,8.00
2022-08-22T23:45:13.916Z,7.50
2022-08-22T23:47:42.213Z,7.23
2022-08-22T23:50:11.059Z,7.40
2022-08-22T23:52:39.385Z,7.60
2022-08-22T23:55:08.789Z,7.50
2022-08-22T23:57:37.146Z,7.90
